createdAt,value
2022-10-18T00:00:15.309Z,101830.44
2022-10-18T00:02:41.922Z,101825.94
2022-10-18T00:05:08.675Z,101826.09
2022-10-18T00:07:35.166Z,101826.34
2022-10-18T00:10:03.219Z,101826.44
2022-10-18T00:12:29.779Z,101828.41
2022-10-18T00:14:56.338Z,101826.91
2022-10-18T00:17:22.826Z,101817.84
2022-10-18T00:19:50.407Z,101810.81
2022-10-18T00:22:16.921Z,101814.38
2022-10-18T00:24:43.505Z,101814.53
2022-10-18T00:27:09.995Z,101818.09
2022-10-18T00:29:36.663Z,101815.25
2022-10-18T00:32:03.179Z,101809.28
2022-10-18T00:34:29.672Z,101814.72
2022-10-18T00:36:56.248Z,101808.47
2022-10-18T00:39:22.879Z,101809.06
2022-10-18T00:41:50.186Z,101811.78
2022-10-18T00:44:16.614Z,101810.47
2022-10-18T00:46:48.688Z,101819.78
2022-10-18T00:49:50.751Z,101809.06
2022-10-18T00:52:22.938Z,101814.66
2022-10-18T00:54:52.086Z,101817.03
2022-10-18T00:57:19.066Z,101812.63
2022-10-18T00:59:46.411Z,101806.63
2022-10-18T01:02:15.055Z,101811.75
2022-10-18T01:04:41.719Z,101802.94
2022-10-18T01:07:26.323Z,101804.41
2022-10-18T01:10:08.553Z,101799.75
2022-10-18T01:13:08.694Z,101803.06
2022-10-18T01:15:45.592Z,101788.84
2022-10-18T01:18:32.098Z,101787.06
2022-10-18T01:21:18.042Z,101775.66
2022-10-18T01:24:23.286Z,101781.09
2022-10-18T01:27:23.421Z,101778.81
2022-10-18T01:30:02.195Z,101778.13
2022-10-18T01:32:34.983Z,101771.25
2022-10-18T01:35:08.171Z,101771.97
2022-10-18T01:37:36.502Z,101778.19
2022-10-18T01:40:08.631Z,101769.22
2022-10-18T01:42:35.353Z,101771.00
2022-10-18T01:45:04.028Z,101769.28
2022-10-18T01:47:31.673Z,101764.09
2022-10-18T01:50:04.466Z,101764.00
2022-10-18T01:52:31.641Z,101747.09
2022-10-18T01:55:00.659Z,101747.25
2022-10-18T01:57:37.669Z,101744.66
2022-10-18T02:00:16.367Z,101757.09
2022-10-18T02:03:17.082Z,101752.75
2022-10-18T02:05:54.362Z,101738.56
2022-10-18T02:08:38.127Z,101746.78
2022-10-18T02:11:12.337Z,101743.16
2022-10-18T02:13:44.062Z,101738.88
2022-10-18T02:16:16.353Z,101740.00
2022-10-18T02:18:52.134Z,101738.34
2022-10-18T02:21:21.319Z,101743.91
2022-10-18T02:23:48.955Z,101743.91
2022-10-18T02:26:16.110Z,101747.59
2022-10-18T02:28:42.896Z,101752.34
2022-10-18T02:31:09.312Z,101745.22
2022-10-18T02:33:45.571Z,101744.44
2022-10-18T02:36:30.813Z,101743.50
2022-10-18T02:39:03.695Z,101748.13
2022-10-18T02:41:31.580Z,101742.94
2022-10-18T02:43:58.116Z,101743.25
2022-10-18T02:46:24.749Z,101746.22
2022-10-18T02:48:51.254Z,101750.69
2022-10-18T02:51:17.713Z,101741.00
2022-10-18T02:53:44.226Z,101739.34
2022-10-18T02:56:10.714Z,101745.63
2022-10-18T02:58:37.232Z,101746.56
2022-10-18T03:01:03.807Z,101735.81
2022-10-18T03:03:30.363Z,101741.34
2022-10-18T03:05:56.839Z,101741.72
2022-10-18T03:08:23.378Z,101746.03
2022-10-18T03:10:49.949Z,101751.91
2022-10-18T03:13:16.730Z,101741.28
2022-10-18T03:15:43.342Z,101754.59
2022-10-18T03:18:10.479Z,101747.44
2022-10-18T03:20:37.117Z,101759.03
2022-10-18T03:23:03.753Z,101760.28
2022-10-18T03:25:30.240Z,101760.72
2022-10-18T03:27:56.722Z,101756.00
2022-10-18T03:30:23.252Z,101751.84
2022-10-18T03:32:49.778Z,101757.19
2022-10-18T03:35:35.070Z,101756.53
2022-10-18T03:38:01.572Z,101756.53
2022-10-18T03:40:28.095Z,101758.19
2022-10-18T03:42:54.624Z,101753.72
2022-10-18T03:45:21.115Z,101759.91
2022-10-18T03:47:47.627Z,101763.59
2022-10-18T03:50:14.283Z,101763.81
2022-10-18T03:52:40.784Z,101771.03
2022-10-18T03:55:07.825Z,101765.16
2022-10-18T03:57:34.324Z,101766.03
2022-10-18T04:00:00.894Z,101764.38
2022-10-18T04:02:27.444Z,101762.50
2022-10-18T04:04:54.187Z,101764.38
2022-10-18T04:07:20.723Z,101753.81
2022-10-18T04:09:47.194Z,101762.38
2022-10-18T04:12:13.701Z,101758.72
2022-10-18T04:14:40.197Z,101759.94
2022-10-18T04:17:06.695Z,101753.81
2022-10-18T04:19:34.358Z,101753.66
2022-10-18T04:22:00.886Z,101767.94
2022-10-18T04:24:27.363Z,101750.69
2022-10-18T04:26:53.963Z,101758.66
2022-10-18T04:29:20.536Z,101753.44
2022-10-18T04:31:47.055Z,101748.97
2022-10-18T04:34:13.544Z,101747.19
2022-10-18T04:36:40.007Z,101752.13
2022-10-18T04:39:06.518Z,101756.88
2022-10-18T04:41:33.058Z,101752.69
2022-10-18T04:43:59.820Z,101754.25
2022-10-18T04:46:26.319Z,101750.00
2022-10-18T04:48:52.820Z,101743.00
2022-10-18T04:51:19.571Z,101748.91
2022-10-18T04:53:46.131Z,101740.78
2022-10-18T04:56:12.686Z,101734.56
2022-10-18T04:58:39.206Z,101731.91
2022-10-18T05:01:08.661Z,101725.91
2022-10-18T05:03:35.376Z,101726.91
2022-10-18T05:06:03.076Z,101725.16
2022-10-18T05:08:30.685Z,101729.84
2022-10-18T05:10:57.307Z,101723.84
2022-10-18T05:13:23.968Z,101732.50
2022-10-18T05:15:50.447Z,101732.59
2022-10-18T05:18:16.985Z,101728.25
2022-10-18T05:20:44.010Z,101728.38
2022-10-18T05:23:10.948Z,101722.03
2022-10-18T05:25:44.199Z,101733.50
2022-10-18T05:28:34.006Z,101728.25
2022-10-18T05:31:02.741Z,101730.94
2022-10-18T05:33:29.395Z,101728.16
2022-10-18T05:35:56.215Z,101737.00
2022-10-18T05:38:22.811Z,101735.13
2022-10-18T05:40:49.425Z,101740.44
2022-10-18T05:43:17.682Z,101740.34
2022-10-18T05:45:49.012Z,101728.66
2022-10-18T05:48:15.552Z,101728.38
2022-10-18T05:50:42.079Z,101725.63
2022-10-18T05:53:12.750Z,101729.84
2022-10-18T05:55:51.207Z,101724.44
2022-10-18T05:58:17.723Z,101723.28
2022-10-18T06:00:44.193Z,101737.13
2022-10-18T06:03:10.753Z,101738.44
2022-10-18T06:08:06.491Z,101734.91
2022-10-18T06:10:39.889Z,101738.06
2022-10-18T06:13:06.459Z,101734.16
2022-10-18T06:15:33.011Z,101737.19
2022-10-18T06:17:59.548Z,101734.88
2022-10-18T06:20:26.105Z,101737.91
2022-10-18T06:22:53.588Z,101739.97
2022-10-18T06:25:20.084Z,101740.44
2022-10-18T06:27:46.586Z,101753.13
2022-10-18T06:30:13.108Z,101741.81
2022-10-18T06:32:39.610Z,101747.50
2022-10-18T06:35:06.673Z,101741.44
2022-10-18T06:37:35.694Z,101743.31
2022-10-18T06:40:02.692Z,101740.84
2022-10-18T06:42:29.203Z,101742.84
2022-10-18T06:44:55.731Z,101738.66
2022-10-18T06:47:22.283Z,101742.47
2022-10-18T06:49:48.832Z,101734.63
2022-10-18T06:52:20.718Z,101736.47
2022-10-18T06:54:47.219Z,101733.88
2022-10-18T06:57:13.699Z,101733.97
2022-10-18T06:59:40.519Z,101743.78
2022-10-18T07:02:07.299Z,101752.59
2022-10-18T07:04:33.926Z,101758.66
2022-10-18T07:07:00.402Z,101749.31
2022-10-18T07:09:26.907Z,101746.47
2022-10-18T07:11:53.382Z,101743.63
2022-10-18T07:14:19.881Z,101737.19
2022-10-18T07:16:46.449Z,101739.69
2022-10-18T07:19:13.803Z,101731.41
2022-10-18T07:21:40.708Z,101725.88
2022-10-18T07:24:08.326Z,101735.75
2022-10-18T07:26:35.301Z,101725.63
2022-10-18T07:29:08.388Z,101733.19
2022-10-18T07:31:35.311Z,101714.34
2022-10-18T07:34:04.982Z,101721.25
2022-10-18T07:36:31.926Z,101711.56
2022-10-18T07:38:58.521Z,101710.09
2022-10-18T07:41:25.143Z,101714.28
2022-10-18T07:43:52.813Z,101719.31
2022-10-18T07:46:21.278Z,101716.72
2022-10-18T07:48:47.772Z,101714.53
2022-10-18T07:51:14.707Z,101711.69
2022-10-18T07:53:41.502Z,101719.63
2022-10-18T07:56:15.779Z,101715.06
2022-10-18T07:58:48.041Z,101712.41
2022-10-18T08:01:15.312Z,101708.44
2022-10-18T08:03:42.862Z,101702.72
2022-10-18T08:06:11.378Z,101703.00
2022-10-18T08:08:39.328Z,101698.63
2022-10-18T08:11:12.703Z,101700.09
2022-10-18T08:13:39.256Z,101691.41
2022-10-18T08:16:09.934Z,101689.56
2022-10-18T08:18:37.225Z,101688.44
2022-10-18T08:21:05.756Z,101685.53
2022-10-18T08:23:32.400Z,101688.44
2022-10-18T08:26:07.247Z,101683.72
2022-10-18T08:28:36.756Z,101674.09
2022-10-18T08:31:05.205Z,101673.41
2022-10-18T08:33:32.755Z,101670.03
2022-10-18T08:36:01.230Z,101664.16
2022-10-18T08:38:31.469Z,101662.53
2022-10-18T08:41:15.520Z,101649.31
2022-10-18T08:43:49.896Z,101648.06
2022-10-18T08:46:16.426Z,101647.44
2022-10-18T08:48:48.777Z,101651.66
2022-10-18T08:51:31.489Z,101647.22
2022-10-18T08:54:10.439Z,101643.00
2022-10-18T08:56:39.527Z,101635.88
2022-10-18T08:59:11.037Z,101634.81
2022-10-18T09:02:02.822Z,101620.69
2022-10-18T09:04:45.883Z,101624.94
2022-10-18T09:07:51.712Z,101615.34
2022-10-18T09:10:34.704Z,101615.16
2022-10-18T09:13:04.175Z,101616.00
2022-10-18T09:15:33.490Z,101610.69
2022-10-18T09:18:13.681Z,101608.75
2022-10-18T09:20:40.102Z,101607.22
2022-10-18T09:23:24.853Z,101604.81
2022-10-18T09:26:07.738Z,101600.91
2022-10-18T09:28:37.133Z,101597.50
2022-10-18T09:31:25.255Z,101594.97
2022-10-18T09:34:02.663Z,101596.75
2022-10-18T09:36:37.214Z,101594.84
2022-10-18T09:39:14.256Z,101590.44
2022-10-18T09:41:49.766Z,101588.31
2022-10-18T09:44:23.205Z,101575.41
2022-10-18T09:46:55.377Z,101580.38
2022-10-18T09:49:31.940Z,101576.97
2022-10-18T09:52:02.749Z,101573.75
2022-10-18T09:54:40.894Z,101562.34
2022-10-18T09:57:15.110Z,101570.03
2022-10-18T09:59:43.930Z,101566.00
2022-10-18T10:02:15.233Z,101564.94
2022-10-18T10:04:41.854Z,101560.78
2022-10-18T10:07:13.474Z,101557.63
2022-10-18T10:09:49.476Z,101545.75
2022-10-18T10:12:30.303Z,101538.63
2022-10-18T10:15:09.955Z,101539.88
2022-10-18T10:17:36.757Z,101540.00
2022-10-18T10:20:24.018Z,101530.75
2022-10-18T10:22:52.485Z,101518.97
2022-10-18T10:25:41.152Z,101528.06
2022-10-18T10:28:18.708Z,101519.25
2022-10-18T10:30:45.267Z,101519.72
2022-10-18T10:33:36.730Z,101510.81
2022-10-18T10:36:07.063Z,101504.34
2022-10-18T10:38:33.621Z,101504.19
2022-10-18T10:41:00.262Z,101506.78
2022-10-18T10:43:38.834Z,101499.66
2022-10-18T10:46:08.639Z,101501.69
2022-10-18T10:49:04.487Z,101486.72
2022-10-18T10:51:41.124Z,101485.19
2022-10-18T10:54:15.085Z,101481.53
2022-10-18T10:56:50.468Z,101474.06
2022-10-18T10:59:19.996Z,101473.16
2022-10-18T11:01:51.588Z,101475.53
2022-10-18T11:04:31.952Z,101458.16
2022-10-18T11:07:11.682Z,101470.78
2022-10-18T11:09:54.546Z,101456.31
2022-10-18T11:12:35.932Z,101452.78
2022-10-18T11:15:18.535Z,101447.13
2022-10-18T11:18:01.379Z,101449.44
2022-10-18T11:20:34.940Z,101441.22
2022-10-18T11:23:03.306Z,101443.41
2022-10-18T11:26:11.370Z,101437.50
2022-10-18T11:29:18.880Z,101428.28
2022-10-18T11:31:50.355Z,101434.84
2022-10-18T11:34:53.500Z,101430.91
2022-10-18T11:37:39.737Z,101419.28
2022-10-18T11:40:33.693Z,101418.66
2022-10-18T11:43:06.118Z,101415.47
2022-10-18T11:45:39.157Z,101405.66
2022-10-18T11:48:16.001Z,101404.78
2022-10-18T11:50:50.681Z,101392.53
2022-10-18T11:53:37.952Z,101392.81
2022-10-18T11:56:15.089Z,101388.78
2022-10-18T11:58:59.572Z,101384.75
2022-10-18T12:01:42.203Z,101382.41
2022-10-18T12:04:19.481Z,101372.84
2022-10-18T12:06:48.726Z,101370.50
2022-10-18T12:09:17.857Z,101371.72
2022-10-18T12:11:55.470Z,101365.00
2022-10-18T12:14:35.117Z,101358.75
2022-10-18T12:17:40.784Z,101364.38
2022-10-18T12:20:05.510Z,101352.00
2022-10-18T12:22:40.370Z,101357.69
2022-10-18T12:25:13.638Z,101350.28
2022-10-18T12:27:50.157Z,101331.59
2022-10-18T12:30:34.191Z,101340.00
2022-10-18T12:33:28.271Z,101337.13
2022-10-18T12:36:02.543Z,101326.41
2022-10-18T12:38:32.162Z,101319.16
2022-10-18T12:40:59.242Z,101318.59
2022-10-18T12:43:37.697Z,101311.88
2022-10-18T12:46:13.360Z,101308.78
2022-10-18T12:48:45.792Z,101310.19
2022-10-18T12:51:16.605Z,101305.44
2022-10-18T12:53:46.035Z,101297.06
2022-10-18T12:56:27.922Z,101295.84
2022-10-18T12:59:16.263Z,101291.78
2022-10-18T13:01:52.149Z,101296.84
2022-10-18T13:04:27.546Z,101297.63
2022-10-18T13:07:12.326Z,101288.03
2022-10-18T13:09:41.840Z,101279.47
2022-10-18T13:12:11.076Z,101274.44
2022-10-18T13:15:24.241Z,101266.66
2022-10-18T13:18:00.927Z,101267.66
2022-10-18T13:20:30.111Z,101267.03
2022-10-18T13:23:20.594Z,101268.09
2022-10-18T13:26:12.873Z,101267.78
2022-10-18T13:29:14.037Z,101276.28
2022-10-18T13:31:43.417Z,101273.28
2022-10-18T13:34:25.139Z,101269.19
2022-10-18T13:37:00.734Z,101268.03
2022-10-18T13:39:28.569Z,101275.66
2022-10-18T13:41:58.232Z,101277.81
2022-10-18T13:44:28.903Z,101266.34
2022-10-18T13:46:55.319Z,101263.28
2022-10-18T13:49:31.081Z,101261.84
2022-10-18T13:52:29.421Z,101258.88
2022-10-18T13:55:32.556Z,101252.84
2022-10-18T13:58:41.064Z,101249.22
2022-10-18T14:01:39.075Z,101246.34
2022-10-18T14:04:39.712Z,101245.63
2022-10-18T14:07:08.933Z,101245.16
2022-10-18T14:09:56.169Z,101235.34
2022-10-18T14:12:46.054Z,101226.47
2022-10-18T14:15:28.990Z,101233.91
2022-10-18T14:18:02.296Z,101228.56
2022-10-18T14:20:36.895Z,101223.56
2022-10-18T14:23:20.336Z,101228.44
2022-10-18T14:25:47.714Z,101230.09
2022-10-18T14:28:15.855Z,101233.47
2022-10-18T14:30:55.794Z,101221.00
2022-10-18T14:33:33.715Z,101222.63
2022-10-18T14:36:20.395Z,101217.00
2022-10-18T14:39:01.733Z,101215.16
2022-10-18T14:41:33.306Z,101210.34
2022-10-18T14:44:14.894Z,101207.03
2022-10-18T14:46:52.197Z,101210.84
2022-10-18T14:49:20.290Z,101207.44
2022-10-18T14:51:53.939Z,101197.66
2022-10-18T14:54:30.641Z,101193.19
2022-10-18T14:56:59.827Z,101197.06
2022-10-18T14:59:39.606Z,101195.78
2022-10-18T15:02:21.345Z,101188.94
2022-10-18T15:04:56.316Z,101184.84
2022-10-18T15:07:24.349Z,101191.72
2022-10-18T15:09:51.646Z,101184.44
2022-10-18T15:12:19.216Z,101181.75
2022-10-18T15:14:47.330Z,101186.88
2022-10-18T15:17:31.859Z,101185.78
2022-10-18T15:20:18.482Z,101193.72
2022-10-18T15:22:46.757Z,101181.88
2022-10-18T15:25:32.820Z,101175.34
2022-10-18T15:28:01.186Z,101175.47
2022-10-18T15:30:30.464Z,101182.00
2022-10-18T15:33:00.346Z,101182.06
2022-10-18T15:35:35.658Z,101177.31
2022-10-18T15:38:23.121Z,101180.25
2022-10-18T15:40:50.022Z,101168.75
2022-10-18T15:43:25.865Z,101177.47
2022-10-18T15:45:53.587Z,101179.31
2022-10-18T15:48:28.330Z,101179.44
2022-10-18T15:51:02.014Z,101175.75
2022-10-18T15:53:36.437Z,101172.66
2022-10-18T15:56:10.595Z,101182.03
2022-10-18T15:58:42.214Z,101182.41
2022-10-18T16:01:23.150Z,101183.34
2022-10-18T16:03:51.394Z,101173.88
2022-10-18T16:06:18.546Z,101168.22
2022-10-18T16:08:53.162Z,101168.34
2022-10-18T16:11:25.086Z,101163.97
2022-10-18T16:13:55.165Z,101172.25
2022-10-18T16:16:27.686Z,101165.81
2022-10-18T16:18:55.184Z,101170.69
2022-10-18T16:21:23.545Z,101181.03
2022-10-18T16:23:50.380Z,101179.41
2022-10-18T16:26:18.667Z,101186.06
2022-10-18T16:28:45.977Z,101182.78
2022-10-18T16:31:21.344Z,101188.59
2022-10-18T16:33:49.075Z,101192.47
2022-10-18T16:36:18.239Z,101191.47
2022-10-18T16:38:45.550Z,101193.03
2022-10-18T16:41:13.371Z,101194.63
2022-10-18T16:43:40.060Z,101197.91
2022-10-18T16:46:10.167Z,101202.72
2022-10-18T16:48:36.694Z,101203.13
2022-10-18T16:51:03.369Z,101198.31
2022-10-18T16:53:30.174Z,101199.28
2022-10-18T16:56:01.768Z,101196.59
2022-10-18T16:58:30.880Z,101205.69
2022-10-18T17:00:57.982Z,101199.69
2022-10-18T17:03:26.076Z,101195.56
2022-10-18T17:05:53.800Z,101188.41
2022-10-18T17:08:26.039Z,101196.16
2022-10-18T17:10:54.780Z,101202.56
2022-10-18T17:13:22.703Z,101195.31
2022-10-18T17:15:50.658Z,101194.72
2022-10-18T17:18:21.747Z,101200.25
2022-10-18T17:20:49.625Z,101198.91
2022-10-18T17:23:16.607Z,101199.34
2022-10-18T17:25:57.838Z,101206.09
2022-10-18T17:28:33.094Z,101202.63
2022-10-18T17:30:59.686Z,101207.03
2022-10-18T17:33:26.203Z,101208.97
2022-10-18T17:35:52.726Z,101204.75
2022-10-18T17:38:19.239Z,101210.53
2022-10-18T17:40:45.722Z,101203.81
2022-10-18T17:43:13.764Z,101199.16
2022-10-18T17:45:53.519Z,101192.00
2022-10-18T17:48:20.037Z,101182.78
2022-10-18T17:50:46.607Z,101178.16
2022-10-18T17:53:13.319Z,101188.00
2022-10-18T17:55:40.478Z,101191.78
2022-10-18T17:58:07.024Z,101182.13
2022-10-18T18:00:33.556Z,101173.22
2022-10-18T18:03:00.675Z,101181.59
2022-10-18T18:05:31.956Z,101183.34
2022-10-18T18:08:02.893Z,101186.41
2022-10-18T18:10:33.260Z,101187.34
2022-10-18T18:13:00.088Z,101181.34
2022-10-18T18:15:26.631Z,101184.44
2022-10-18T18:17:57.025Z,101190.13
2022-10-18T18:20:24.862Z,101180.31
2022-10-18T18:22:52.095Z,101181.41
2022-10-18T18:25:18.623Z,101178.47
2022-10-18T18:27:45.148Z,101170.16
2022-10-18T18:30:11.855Z,101166.59
2022-10-18T18:32:39.342Z,101163.16
2022-10-18T18:35:06.175Z,101173.31
2022-10-18T18:37:32.751Z,101177.16
2022-10-18T18:39:59.330Z,101169.78
2022-10-18T18:42:25.809Z,101170.53
2022-10-18T18:44:52.325Z,101171.00
2022-10-18T18:47:21.652Z,101175.91
2022-10-18T18:49:48.608Z,101164.53
2022-10-18T18:52:15.303Z,101162.59
2022-10-18T18:54:41.817Z,101159.75
2022-10-18T18:57:08.341Z,101163.69
2022-10-18T18:59:34.850Z,101154.22
2022-10-18T19:02:01.423Z,101152.53
2022-10-18T19:04:29.066Z,101153.41
2022-10-18T19:06:55.602Z,101148.59
2022-10-18T19:09:22.915Z,101143.31
2022-10-18T19:11:52.844Z,101148.94
2022-10-18T19:14:19.826Z,101140.84
2022-10-18T19:16:47.510Z,101145.63
2022-10-18T19:19:27.196Z,101137.81
2022-10-18T19:21:58.767Z,101148.00
2022-10-18T19:24:27.910Z,101156.44
2022-10-18T19:27:03.059Z,101144.81
2022-10-18T19:29:31.967Z,101143.94
2022-10-18T19:32:01.917Z,101146.41
2022-10-18T19:34:29.726Z,101142.13
2022-10-18T19:36:56.450Z,101142.13
2022-10-18T19:39:25.496Z,101145.41
2022-10-18T19:41:55.149Z,101145.28
2022-10-18T19:44:23.041Z,101146.75
2022-10-18T19:46:50.228Z,101142.16
2022-10-18T19:49:17.442Z,101143.47
2022-10-18T19:51:45.280Z,101151.59
2022-10-18T19:54:13.954Z,101142.31
2022-10-18T19:56:41.788Z,101145.13
2022-10-18T19:59:09.230Z,101146.56
2022-10-18T20:01:36.692Z,101150.72
2022-10-18T20:04:07.411Z,101140.97
2022-10-18T20:06:34.751Z,101144.91
2022-10-18T20:09:01.613Z,101143.94
2022-10-18T20:11:29.239Z,101143.22
2022-10-18T20:13:56.820Z,101134.53
2022-10-18T20:16:29.637Z,101128.38
2022-10-18T20:19:02.434Z,101134.53
2022-10-18T20:21:30.267Z,101122.19
2022-10-18T20:23:57.258Z,101129.50
2022-10-18T20:26:25.486Z,101124.22
2022-10-18T20:28:57.579Z,101116.72
2022-10-18T20:31:30.309Z,101123.03
2022-10-18T20:33:59.975Z,101122.09
2022-10-18T20:36:29.926Z,101130.59
2022-10-18T20:38:56.788Z,101124.69
2022-10-18T20:41:30.376Z,101112.78
2022-10-18T20:44:00.120Z,101128.41
2022-10-18T20:46:29.383Z,101120.13
2022-10-18T20:48:55.923Z,101120.34
2022-10-18T20:51:23.149Z,101114.84
2022-10-18T20:53:50.336Z,101117.97
2022-10-18T20:56:20.465Z,101120.13
2022-10-18T20:58:50.545Z,101112.59
2022-10-18T21:01:23.243Z,101094.75
2022-10-18T21:03:51.835Z,101106.47
2022-10-18T21:06:21.578Z,101107.41
2022-10-18T21:08:53.352Z,101100.44
2022-10-18T21:11:19.920Z,101101.41
2022-10-18T21:13:53.774Z,101093.72
2022-10-18T21:16:20.833Z,101096.41
2022-10-18T21:18:48.265Z,101105.88
2022-10-18T21:21:19.744Z,101101.69
2022-10-18T21:23:47.474Z,101098.72
2022-10-18T21:26:16.823Z,101111.41
2022-10-18T21:28:43.458Z,101109.91
2022-10-18T21:31:17.370Z,101100.78
2022-10-18T21:33:44.939Z,101097.00
2022-10-18T21:36:12.330Z,101103.25
2022-10-18T21:38:39.228Z,101101.22
2022-10-18T21:41:14.320Z,101082.84
2022-10-18T21:43:44.157Z,101079.97
2022-10-18T21:46:11.666Z,101081.97
2022-10-18T21:48:41.947Z,101075.03
2022-10-18T21:51:08.867Z,101066.94
2022-10-18T21:53:36.364Z,101068.22
2022-10-18T21:56:07.698Z,101062.63
2022-10-18T21:58:38.207Z,101056.88
2022-10-18T22:01:08.527Z,101052.03
2022-10-18T22:03:35.871Z,101053.56
2022-10-18T22:06:07.550Z,101047.41
2022-10-18T22:08:34.281Z,101057.63
2022-10-18T22:11:00.904Z,101056.78
2022-10-18T22:13:28.578Z,101050.44
2022-10-18T22:15:55.248Z,101060.63
2022-10-18T22:18:21.920Z,101053.06
2022-10-18T22:21:00.555Z,101052.34
2022-10-18T22:23:34.952Z,101050.28
2022-10-18T22:26:07.721Z,101046.53
2022-10-18T22:28:35.718Z,101040.22
2022-10-18T22:31:02.336Z,101048.03
2022-10-18T22:33:29.164Z,101037.09
2022-10-18T22:35:55.829Z,101034.00
2022-10-18T22:38:22.501Z,101035.41
2022-10-18T22:40:49.087Z,101029.59
2022-10-18T22:43:15.551Z,101028.09
2022-10-18T22:45:42.127Z,101024.88
2022-10-18T22:48:08.605Z,101036.13
2022-10-18T22:50:37.410Z,101029.44
2022-10-18T22:53:03.907Z,101038.47
2022-10-18T22:55:30.403Z,101031.06
2022-10-18T22:57:56.903Z,101028.38
2022-10-18T23:00:23.433Z,101024.63
2022-10-18T23:02:50.061Z,101033.84
2022-10-18T23:05:16.675Z,101032.31
2022-10-18T23:07:47.591Z,101032.38
2022-10-18T23:10:14.171Z,101024.50
2022-10-18T23:12:40.916Z,101031.03
2022-10-18T23:15:08.061Z,101019.06
2022-10-18T23:17:34.784Z,101023.16
2022-10-18T23:20:01.607Z,101012.66
2022-10-18T23:22:28.073Z,101009.00
2022-10-18T23:24:54.553Z,101011.47
2022-10-18T23:27:21.026Z,101012.09
2022-10-18T23:29:47.527Z,101002.81
2022-10-18T23:32:14.010Z,101007.09
2022-10-18T23:34:40.523Z,101001.72
2022-10-18T23:37:07.010Z,101010.25
2022-10-18T23:39:33.567Z,101018.78
2022-10-18T23:42:00.068Z,101013.28
2022-10-18T23:44:26.590Z,101012.31
2022-10-18T23:46:53.086Z,101006.44
2022-10-18T23:49:19.570Z,101006.16
2022-10-18T23:51:46.079Z,101014.94
2022-10-18T23:54:12.619Z,101002.38
2022-10-18T23:56:39.105Z,100993.69
2022-10-18T23:59:05.607Z,100989.88
